sensor_id;sensor_type;location;lat;lon;timestamp;P1;durP1;ratioP1;P2;durP2;ratioP2
7669;SDS011;3877;42.562;27.636;2023-02-28T00:01:05;17.90;;;7.10;;
7669;SDS011;3877;42.562;27.636;2023-02-28T00:03:32;14.33;;;7.53;;
7669;SDS011;3877;42.562;27.636;2023-02-28T00:06:02;10.77;;;7.40;;
7669;SDS011;3877;42.562;27.636;2023-02-28T00:08:30;13.73;;;7.43;;
7669;SDS011;3877;42.562;27.636;2023-02-28T00:11:00;10.63;;;7.57;;
7669;SDS011;3877;42.562;27.636;2023-02-28T00:13:28;12.63;;;7.23;;
7669;SDS011;3877;42.562;27.636;2023-02-28T00:15:58;14.23;;;7.53;;
7669;SDS011;3877;42.562;27.636;2023-02-28T00:18:26;12.40;;;8.37;;
7669;SDS011;3877;42.562;27.636;2023-02-28T00:20:53;16.20;;;7.77;;
7669;SDS011;3877;42.562;27.636;2023-02-28T00:23:22;12.43;;;8.00;;
7669;SDS011;3877;42.562;27.636;2023-02-28T00:25:49;11.80;;;7.93;;
7669;SDS011;3877;42.562;27.636;2023-02-28T00:28:17;13.67;;;7.70;;
7669;SDS011;3877;42.562;27.636;2023-02-28T00:30:44;12.40;;;7.90;;
7669;SDS011;3877;42.562;27.636;2023-02-28T00:33:11;16.37;;;9.03;;
7669;SDS011;3877;42.562;27.636;2023-02-28T00:35:39;15.43;;;9.70;;
7669;SDS011;3877;42.562;27.636;2023-02-28T00:38:06;12.93;;;8.80;;
7669;SDS011;3877;42.562;27.636;2023-02-28T00:40:34;14.60;;;9.70;;
7669;SDS011;3877;42.562;27.636;2023-02-28T00:43:02;15.00;;;8.93;;
7669;SDS011;3877;42.562;27.636;2023-02-28T00:45:29;14.47;;;8.50;;
7669;SDS011;3877;42.562;27.636;2023-02-28T00:47:56;11.73;;;8.07;;
7669;SDS011;3877;42.562;27.636;2023-02-28T00:50:24;14.43;;;8.50;;
7669;SDS011;3877;42.562;27.636;2023-02-28T00:52:51;14.73;;;9.10;;
7669;SDS011;3877;42.562;27.636;2023-02-28T00:55:18;11.80;;;7.67;;
7669;SDS011;3877;42.562;27.636;2023-02-28T00:57:47;11.13;;;7.93;;
7669;SDS011;3877;42.562;27.636;2023-02-28T01:00:14;23.67;;;10.73;;
7669;SDS011;3877;42.562;27.636;2023-02-28T01:02:42;14.57;;;9.13;;
7669;SDS011;3877;42.562;27.636;2023-02-28T01:05:09;13.73;;;8.87;;
7669;SDS011;3877;42.562;27.636;2023-02-28T01:07:36;19.47;;;10.47;;
7669;SDS011;3877;42.562;27.636;2023-02-28T01:10:04;24.40;;;11.97;;
7669;SDS011;3877;42.562;27.636;2023-02-28T01:12:31;22.27;;;10.50;;
7669;SDS011;3877;42.562;27.636;2023-02-28T01:15:00;19.07;;;10.57;;
7669;SDS011;3877;42.562;27.636;2023-02-28T01:17:28;17.47;;;8.87;;
7669;SDS011;3877;42.562;27.636;2023-02-28T01:19:55;16.30;;;9.73;;
7669;SDS011;3877;42.562;27.636;2023-02-28T01:22:22;14.10;;;10.87;;
7669;SDS011;3877;42.562;27.636;2023-02-28T01:24:49;17.43;;;10.30;;
7669;SDS011;3877;42.562;27.636;2023-02-28T01:27:17;17.37;;;10.50;;
7669;SDS011;3877;42.562;27.636;2023-02-28T01:29:44;15.17;;;11.07;;
7669;SDS011;3877;42.562;27.636;2023-02-28T01:32:12;16.83;;;11.97;;
7669;SDS011;3877;42.562;27.636;2023-02-28T01:34:40;17.80;;;11.63;;
7669;SDS011;3877;42.562;27.636;2023-02-28T01:37:07;14.47;;;11.20;;
7669;SDS011;3877;42.562;27.636;2023-02-28T01:39:34;17.37;;;12.83;;
7669;SDS011;3877;42.562;27.636;2023-02-28T01:42:19;15.43;;;11.20;;
7669;SDS011;3877;42.562;27.636;2023-02-28T01:45:00;20.37;;;12.90;;
7669;SDS011;3877;42.562;27.636;2023-02-28T01:47:43;20.07;;;12.87;;
7669;SDS011;3877;42.562;27.636;2023-02-28T01:50:13;19.60;;;12.60;;
7669;SDS011;3877;42.562;27.636;2023-02-28T01:52:43;18.03;;;13.30;;
7669;SDS011;3877;42.562;27.636;2023-02-28T01:55:12;15.43;;;11.83;;
7669;SDS011;3877;42.562;27.636;2023-02-28T01:57:42;17.47;;;13.30;;
7669;SDS011;3877;42.562;27.636;2023-02-28T02:00:13;19.13;;;13.13;;
7669;SDS011;3877;42.562;27.636;2023-02-28T02:02:44;20.77;;;13.93;;
7669;SDS011;3877;42.562;27.636;2023-02-28T02:05:14;18.53;;;14.27;;
7669;SDS011;3877;42.562;27.636;2023-02-28T02:07:44;17.83;;;12.27;;
7669;SDS011;3877;42.562;27.636;2023-02-28T02:10:15;21.47;;;14.27;;
7669;SDS011;3877;42.562;27.636;2023-02-28T02:12:50;19.87;;;14.10;;
7669;SDS011;3877;42.562;27.636;2023-02-28T02:15:29;17.43;;;12.90;;
7669;SDS011;3877;42.562;27.636;2023-02-28T02:18:02;19.20;;;13.00;;
7669;SDS011;3877;42.562;27.636;2023-02-28T02:24:01;18.00;;;12.57;;
7669;SDS011;3877;42.562;27.636;2023-02-28T02:26:47;13.77;;;10.10;;
7669;SDS011;3877;42.562;27.636;2023-02-28T02:32:53;13.67;;;10.83;;
7669;SDS011;3877;42.562;27.636;2023-02-28T02:35:42;16.60;;;11.57;;
7669;SDS011;3877;42.562;27.636;2023-02-28T02:38:16;19.30;;;12.73;;
7669;SDS011;3877;42.562;27.636;2023-02-28T02:40:51;20.67;;;12.73;;
7669;SDS011;3877;42.562;27.636;2023-02-28T02:43:25;16.60;;;11.90;;
7669;SDS011;3877;42.562;27.636;2023-02-28T02:45:56;18.83;;;12.90;;
7669;SDS011;3877;42.562;27.636;2023-02-28T02:48:34;19.13;;;14.87;;
7669;SDS011;3877;42.562;27.636;2023-02-28T02:51:06;15.20;;;12.00;;
7669;SDS011;3877;42.562;27.636;2023-02-28T02:53:40;23.00;;;14.23;;
7669;SDS011;3877;42.562;27.636;2023-02-28T02:56:10;18.50;;;13.37;;
7669;SDS011;3877;42.562;27.636;2023-02-28T02:58:40;15.03;;;12.63;;
7669;SDS011;3877;42.562;27.636;2023-02-28T03:01:10;18.10;;;13.80;;
7669;SDS011;3877;42.562;27.636;2023-02-28T03:03:42;19.87;;;14.07;;
7669;SDS011;3877;42.562;27.636;2023-02-28T03:06:12;19.37;;;13.80;;
7669;SDS011;3877;42.562;27.636;2023-02-28T03:08:41;17.03;;;14.17;;
7669;SDS011;3877;42.562;27.636;2023-02-28T03:11:11;33.13;;;26.83;;
7669;SDS011;3877;42.562;27.636;2023-02-28T03:13:52;17.63;;;13.47;;
7669;SDS011;3877;42.562;27.636;2023-02-28T03:16:32;14.00;;;10.80;;
7669;SDS011;3877;42.562;27.636;2023-02-28T03:19:06;22.00;;;14.07;;
7669;SDS011;3877;42.562;27.636;2023-02-28T03:21:49;18.43;;;12.07;;
7669;SDS011;3877;42.562;27.636;2023-02-28T03:24:25;17.07;;;13.13;;
7669;SDS011;3877;42.562;27.636;2023-02-28T03:27:05;21.50;;;14.40;;
7669;SDS011;3877;42.562;27.636;2023-02-28T03:29:39;21.60;;;14.90;;
7669;SDS011;3877;42.562;27.636;2023-02-28T03:32:12;22.20;;;16.20;;
7669;SDS011;3877;42.562;27.636;2023-02-28T03:34:47;16.40;;;12.10;;
7669;SDS011;3877;42.562;27.636;2023-02-28T03:37:23;20.93;;;13.90;;
7669;SDS011;3877;42.562;27.636;2023-02-28T03:39:56;21.93;;;12.93;;
7669;SDS011;3877;42.562;27.636;2023-02-28T03:42:28;20.40;;;13.50;;
7669;SDS011;3877;42.562;27.636;2023-02-28T03:44:59;21.97;;;12.67;;
7669;SDS011;3877;42.562;27.636;2023-02-28T03:47:33;21.07;;;13.37;;
7669;SDS011;3877;42.562;27.636;2023-02-28T03:50:05;20.50;;;14.20;;
7669;SDS011;3877;42.562;27.636;2023-02-28T03:52:42;14.50;;;10.67;;
7669;SDS011;3877;42.562;27.636;2023-02-28T03:55:17;14.30;;;11.00;;
7669;SDS011;3877;42.562;27.636;2023-02-28T03:57:49;15.67;;;12.07;;
7669;SDS011;3877;42.562;27.636;2023-02-28T04:00:25;16.30;;;11.47;;
7669;SDS011;3877;42.562;27.636;2023-02-28T04:02:55;16.60;;;10.00;;
7669;SDS011;3877;42.562;27.636;2023-02-28T04:05:22;15.60;;;9.83;;
7669;SDS011;3877;42.562;27.636;2023-02-28T04:07:52;18.50;;;11.93;;
7669;SDS011;3877;42.562;27.636;2023-02-28T04:10:19;13.53;;;10.43;;
7669;SDS011;3877;42.562;27.636;2023-02-28T04:12:46;19.30;;;11.17;;
7669;SDS011;3877;42.562;27.636;2023-02-28T04:15:14;16.47;;;11.43;;
7669;SDS011;3877;42.562;27.636;2023-02-28T04:17:41;14.93;;;10.77;;
7669;SDS011;3877;42.562;27.636;2023-02-28T04:20:09;14.63;;;10.67;;
7669;SDS011;3877;42.562;27.636;2023-02-28T04:22:37;21.33;;;11.83;;
7669;SDS011;3877;42.562;27.636;2023-02-28T04:25:06;19.57;;;11.23;;
7669;SDS011;3877;42.562;27.636;2023-02-28T04:27:34;15.17;;;10.87;;
7669;SDS011;3877;42.562;27.636;2023-02-28T04:30:01;13.80;;;10.67;;
7669;SDS011;3877;42.562;27.636;2023-02-28T04:32:29;15.00;;;10.23;;
7669;SDS011;3877;42.562;27.636;2023-02-28T04:34:56;15.70;;;12.00;;
7669;SDS011;3877;42.562;27.636;2023-02-28T04:37:23;17.03;;;11.43;;
7669;SDS011;3877;42.562;27.636;2023-02-28T04:39:54;13.77;;;10.63;;
7669;SDS011;3877;42.562;27.636;2023-02-28T04:42:22;17.27;;;12.30;;
7669;SDS011;3877;42.562;27.636;2023-02-28T04:44:49;15.13;;;10.50;;
7669;SDS011;3877;42.562;27.636;2023-02-28T04:47:16;18.07;;;13.50;;
7669;SDS011;3877;42.562;27.636;2023-02-28T04:49:43;14.83;;;10.70;;
7669;SDS011;3877;42.562;27.636;2023-02-28T04:52:10;17.23;;;11.23;;
7669;SDS011;3877;42.562;27.636;2023-02-28T04:54:38;17.83;;;13.27;;
7669;SDS011;3877;42.562;27.636;2023-02-28T04:57:05;16.53;;;12.30;;
7669;SDS011;3877;42.562;27.636;2023-02-28T04:59:34;18.57;;;12.10;;
7669;SDS011;3877;42.562;27.636;2023-02-28T05:02:01;18.00;;;13.67;;
7669;SDS011;3877;42.562;27.636;2023-02-28T05:04:31;17.03;;;12.40;;
7669;SDS011;3877;42.562;27.636;2023-02-28T05:06:59;17.10;;;11.77;;
7669;SDS011;3877;42.562;27.636;2023-02-28T05:09:27;19.27;;;11.73;;
7669;SDS011;3877;42.562;27.636;2023-02-28T05:11:54;22.27;;;12.93;;
7669;SDS011;3877;42.562;27.636;2023-02-28T05:14:22;16.83;;;13.40;;
7669;SDS011;3877;42.562;27.636;2023-02-28T05:16:50;15.27;;;12.13;;
7669;SDS011;3877;42.562;27.636;2023-02-28T05:19:17;12.97;;;10.97;;
7669;SDS011;3877;42.562;27.636;2023-02-28T05:21:49;18.70;;;12.07;;
7669;SDS011;3877;42.562;27.636;2023-02-28T05:24:18;14.87;;;11.23;;
7669;SDS011;3877;42.562;27.636;2023-02-28T05:26:48;19.13;;;12.07;;
7669;SDS011;3877;42.562;27.636;2023-02-28T05:29:18;14.90;;;10.40;;
7669;SDS011;3877;42.562;27.636;2023-02-28T05:31:45;15.70;;;12.50;;
7669;SDS011;3877;42.562;27.636;2023-02-28T05:34:14;13.57;;;10.37;;
7669;SDS011;3877;42.562;27.636;2023-02-28T05:36:41;12.57;;;9.50;;
7669;SDS011;3877;42.562;27.636;2023-02-28T05:39:09;13.03;;;10.40;;
7669;SDS011;3877;42.562;27.636;2023-02-28T05:41:38;14.83;;;10.30;;
7669;SDS011;3877;42.562;27.636;2023-02-28T05:44:06;16.10;;;10.63;;
7669;SDS011;3877;42.562;27.636;2023-02-28T05:46:33;14.50;;;11.00;;
7669;SDS011;3877;42.562;27.636;2023-02-28T05:49:01;13.33;;;9.63;;
7669;SDS011;3877;42.562;27.636;2023-02-28T05:51:30;16.03;;;9.93;;
7669;SDS011;3877;42.562;27.636;2023-02-28T05:54:00;14.23;;;9.47;;
7669;SDS011;3877;42.562;27.636;2023-02-28T05:56:28;11.43;;;8.73;;
7669;SDS011;3877;42.562;27.636;2023-02-28T05:58:55;13.37;;;9.10;;
7669;SDS011;3877;42.562;27.636;2023-02-28T06:01:24;15.23;;;8.53;;
7669;SDS011;3877;42.562;27.636;2023-02-28T06:03:57;11.10;;;8.17;;
7669;SDS011;3877;42.562;27.636;2023-02-28T06:06:25;11.90;;;8.60;;
7669;SDS011;3877;42.562;27.636;2023-02-28T06:08:54;17.73;;;9.10;;
7669;SDS011;3877;42.562;27.636;2023-02-28T06:11:21;10.50;;;7.27;;
7669;SDS011;3877;42.562;27.636;2023-02-28T06:13:52;13.47;;;8.07;;
7669;SDS011;3877;42.562;27.636;2023-02-28T06:16:20;11.13;;;8.10;;
7669;SDS011;3877;42.562;27.636;2023-02-28T06:18:47;14.90;;;8.40;;
7669;SDS011;3877;42.562;27.636;2023-02-28T06:21:14;12.30;;;8.87;;
7669;SDS011;3877;42.562;27.636;2023-02-28T06:23:41;12.47;;;8.70;;
7669;SDS011;3877;42.562;27.636;2023-02-28T06:26:10;17.63;;;8.83;;
7669;SDS011;3877;42.562;27.636;2023-02-28T06:28:37;12.73;;;9.63;;
7669;SDS011;3877;42.562;27.636;2023-02-28T06:31:06;13.93;;;8.97;;
7669;SDS011;3877;42.562;27.636;2023-02-28T06:33:34;10.60;;;7.83;;
7669;SDS011;3877;42.562;27.636;2023-02-28T06:36:01;12.93;;;9.03;;
7669;SDS011;3877;42.562;27.636;2023-02-28T06:38:29;12.47;;;8.97;;
7669;SDS011;3877;42.562;27.636;2023-02-28T06:40:57;13.53;;;9.67;;
7669;SDS011;3877;42.562;27.636;2023-02-28T06:43:27;13.23;;;8.80;;
7669;SDS011;3877;42.562;27.636;2023-02-28T06:45:55;14.57;;;8.87;;
7669;SDS011;3877;42.562;27.636;2023-02-28T06:48:22;11.57;;;8.40;;
7669;SDS011;3877;42.562;27.636;2023-02-28T06:50:50;12.87;;;8.97;;
7669;SDS011;3877;42.562;27.636;2023-02-28T06:53:17;13.50;;;9.90;;
7669;SDS011;3877;42.562;27.636;2023-02-28T06:55:45;13.40;;;8.87;;
7669;SDS011;3877;42.562;27.636;2023-02-28T06:58:12;10.80;;;8.07;;
7669;SDS011;3877;42.562;27.636;2023-02-28T07:00:42;14.60;;;9.30;;
7669;SDS011;3877;42.562;27.636;2023-02-28T07:03:10;13.17;;;9.07;;
7669;SDS011;3877;42.562;27.636;2023-02-28T07:05:38;11.17;;;9.30;;
7669;SDS011;3877;42.562;27.636;2023-02-28T07:08:06;14.23;;;8.70;;
7669;SDS011;3877;42.562;27.636;2023-02-28T07:10:33;19.90;;;10.17;;
7669;SDS011;3877;42.562;27.636;2023-02-28T07:13:00;30.07;;;13.93;;
7669;SDS011;3877;42.562;27.636;2023-02-28T07:15:28;27.53;;;14.13;;
7669;SDS011;3877;42.562;27.636;2023-02-28T07:17:56;20.90;;;11.00;;
7669;SDS011;3877;42.562;27.636;2023-02-28T07:20:23;18.30;;;10.03;;
7669;SDS011;3877;42.562;27.636;2023-02-28T07:22:51;14.53;;;9.27;;
7669;SDS011;3877;42.562;27.636;2023-02-28T07:25:21;18.47;;;10.90;;
7669;SDS011;3877;42.562;27.636;2023-02-28T07:27:49;19.30;;;10.73;;
7669;SDS011;3877;42.562;27.636;2023-02-28T07:30:16;18.50;;;10.67;;
7669;SDS011;3877;42.562;27.636;2023-02-28T07:32:44;16.60;;;10.93;;
7669;SDS011;3877;42.562;27.636;2023-02-28T07:35:13;21.23;;;11.70;;
7669;SDS011;3877;42.562;27.636;2023-02-28T07:37:40;16.40;;;11.40;;
7669;SDS011;3877;42.562;27.636;2023-02-28T07:40:09;19.93;;;12.00;;
7669;SDS011;3877;42.562;27.636;2023-02-28T07:42:37;21.07;;;12.63;;
7669;SDS011;3877;42.562;27.636;2023-02-28T07:45:06;19.27;;;12.30;;
7669;SDS011;3877;42.562;27.636;2023-02-28T07:47:36;24.93;;;12.87;;
7669;SDS011;3877;42.562;27.636;2023-02-28T07:50:04;20.80;;;13.87;;
7669;SDS011;3877;42.562;27.636;2023-02-28T07:52:34;19.70;;;14.07;;
7669;SDS011;3877;42.562;27.636;2023-02-28T07:55:02;22.13;;;13.47;;
7669;SDS011;3877;42.562;27.636;2023-02-28T07:57:30;21.10;;;12.63;;
7669;SDS011;3877;42.562;27.636;2023-02-28T07:59:58;21.23;;;13.33;;
7669;SDS011;3877;42.562;27.636;2023-02-28T08:02:25;21.27;;;13.57;;
7669;SDS011;3877;42.562;27.636;2023-02-28T08:04:52;20.17;;;12.00;;
7669;SDS011;3877;42.562;27.636;2023-02-28T08:07:19;18.67;;;11.67;;
7669;SDS011;3877;42.562;27.636;2023-02-28T08:09:48;16.23;;;11.27;;
7669;SDS011;3877;42.562;27.636;2023-02-28T08:12:15;17.90;;;10.37;;
7669;SDS011;3877;42.562;27.636;2023-02-28T08:14:42;18.07;;;10.90;;
7669;SDS011;3877;42.562;27.636;2023-02-28T08:17:10;19.40;;;12.23;;
7669;SDS011;3877;42.562;27.636;2023-02-28T08:19:39;18.97;;;12.67;;
7669;SDS011;3877;42.562;27.636;2023-02-28T08:22:14;22.30;;;12.80;;
7669;SDS011;3877;42.562;27.636;2023-02-28T08:24:57;19.87;;;11.70;;
7669;SDS011;3877;42.562;27.636;2023-02-28T08:27:25;21.27;;;12.40;;
7669;SDS011;3877;42.562;27.636;2023-02-28T08:29:53;18.07;;;12.30;;
7669;SDS011;3877;42.562;27.636;2023-02-28T08:32:21;19.97;;;13.10;;
7669;SDS011;3877;42.562;27.636;2023-02-28T08:34:48;24.00;;;12.77;;
7669;SDS011;3877;42.562;27.636;2023-02-28T08:37:16;22.03;;;12.43;;
7669;SDS011;3877;42.562;27.636;2023-02-28T08:39:49;20.67;;;12.83;;
7669;SDS011;3877;42.562;27.636;2023-02-28T08:42:23;21.90;;;11.53;;
7669;SDS011;3877;42.562;27.636;2023-02-28T08:44:51;23.80;;;12.97;;
7669;SDS011;3877;42.562;27.636;2023-02-28T08:47:20;18.90;;;12.20;;
7669;SDS011;3877;42.562;27.636;2023-02-28T08:49:47;25.50;;;14.50;;
7669;SDS011;3877;42.562;27.636;2023-02-28T08:52:16;22.73;;;13.13;;
7669;SDS011;3877;42.562;27.636;2023-02-28T08:54:48;24.20;;;13.40;;
7669;SDS011;3877;42.562;27.636;2023-02-28T08:57:27;28.70;;;14.87;;
7669;SDS011;3877;42.562;27.636;2023-02-28T08:59:57;17.57;;;11.37;;
7669;SDS011;3877;42.562;27.636;2023-02-28T09:02:25;23.03;;;13.33;;
7669;SDS011;3877;42.562;27.636;2023-02-28T09:04:54;20.80;;;13.77;;
7669;SDS011;3877;42.562;27.636;2023-02-28T09:07:25;20.17;;;11.33;;
7669;SDS011;3877;42.562;27.636;2023-02-28T09:10:07;23.70;;;12.80;;
7669;SDS011;3877;42.562;27.636;2023-02-28T09:12:38;24.87;;;11.70;;
7669;SDS011;3877;42.562;27.636;2023-02-28T09:15:06;17.97;;;10.53;;
7669;SDS011;3877;42.562;27.636;2023-02-28T09:17:34;12.47;;;8.20;;
7669;SDS011;3877;42.562;27.636;2023-02-28T09:20:03;14.90;;;8.87;;
7669;SDS011;3877;42.562;27.636;2023-02-28T09:22:41;18.47;;;8.90;;
7669;SDS011;3877;42.562;27.636;2023-02-28T09:25:09;17.10;;;9.97;;
7669;SDS011;3877;42.562;27.636;2023-02-28T09:27:40;15.00;;;7.97;;
7669;SDS011;3877;42.562;27.636;2023-02-28T09:30:11;15.23;;;7.23;;
7669;SDS011;3877;42.562;27.636;2023-02-28T09:32:46;12.03;;;5.87;;
7669;SDS011;3877;42.562;27.636;2023-02-28T09:35:22;10.23;;;5.60;;
7669;SDS011;3877;42.562;27.636;2023-02-28T09:37:52;14.07;;;5.73;;
7669;SDS011;3877;42.562;27.636;2023-02-28T09:40:20;12.57;;;5.77;;
7669;SDS011;3877;42.562;27.636;2023-02-28T09:42:52;12.77;;;5.97;;
7669;SDS011;3877;42.562;27.636;2023-02-28T09:45:23;12.43;;;5.47;;
7669;SDS011;3877;42.562;27.636;2023-02-28T09:47:59;10.70;;;6.57;;
7669;SDS011;3877;42.562;27.636;2023-02-28T09:50:32;12.37;;;6.57;;
7669;SDS011;3877;42.562;27.636;2023-02-28T09:53:03;13.10;;;6.87;;
7669;SDS011;3877;42.562;27.636;2023-02-28T09:55:54;11.77;;;6.83;;
7669;SDS011;3877;42.562;27.636;2023-02-28T09:58:28;12.83;;;6.77;;
7669;SDS011;3877;42.562;27.636;2023-02-28T10:01:04;11.60;;;7.27;;
7669;SDS011;3877;42.562;27.636;2023-02-28T10:03:45;14.60;;;7.30;;
7669;SDS011;3877;42.562;27.636;2023-02-28T10:06:19;14.70;;;7.60;;
7669;SDS011;3877;42.562;27.636;2023-02-28T10:09:03;12.57;;;7.40;;
7669;SDS011;3877;42.562;27.636;2023-02-28T10:11:40;15.20;;;8.57;;
7669;SDS011;3877;42.562;27.636;2023-02-28T10:14:22;13.80;;;8.23;;
7669;SDS011;3877;42.562;27.636;2023-02-28T10:16:55;12.53;;;6.93;;
7669;SDS011;3877;42.562;27.636;2023-02-28T10:19:29;13.10;;;8.17;;
7669;SDS011;3877;42.562;27.636;2023-02-28T10:22:04;13.67;;;7.70;;
7669;SDS011;3877;42.562;27.636;2023-02-28T10:24:55;11.67;;;7.30;;
7669;SDS011;3877;42.562;27.636;2023-02-28T10:27:29;15.73;;;8.50;;
7669;SDS011;3877;42.562;27.636;2023-02-28T10:30:01;14.10;;;7.33;;
7669;SDS011;3877;42.562;27.636;2023-02-28T10:32:35;15.67;;;7.67;;
7669;SDS011;3877;42.562;27.636;2023-02-28T10:35:10;17.07;;;8.63;;
7669;SDS011;3877;42.562;27.636;2023-02-28T10:37:49;15.20;;;8.20;;
7669;SDS011;3877;42.562;27.636;2023-02-28T10:40:31;13.90;;;8.57;;
7669;SDS011;3877;42.562;27.636;2023-02-28T10:43:19;15.73;;;9.37;;
7669;SDS011;3877;42.562;27.636;2023-02-28T10:46:18;16.87;;;9.57;;
7669;SDS011;3877;42.562;27.636;2023-02-28T10:49:00;20.90;;;9.30;;
7669;SDS011;3877;42.562;27.636;2023-02-28T10:51:45;14.00;;;8.63;;
7669;SDS011;3877;42.562;27.636;2023-02-28T10:54:18;18.30;;;9.83;;
7669;SDS011;3877;42.562;27.636;2023-02-28T10:59:43;17.67;;;8.17;;
7669;SDS011;3877;42.562;27.636;2023-02-28T11:05:00;14.10;;;8.23;;
7669;SDS011;3877;42.562;27.636;2023-02-28T11:07:27;18.50;;;7.83;;
7669;SDS011;3877;42.562;27.636;2023-02-28T11:09:55;15.73;;;8.10;;
7669;SDS011;3877;42.562;27.636;2023-02-28T11:12:25;15.63;;;8.50;;
7669;SDS011;3877;42.562;27.636;2023-02-28T11:14:55;12.57;;;7.63;;
7669;SDS011;3877;42.562;27.636;2023-02-28T11:17:26;14.50;;;8.37;;
7669;SDS011;3877;42.562;27.636;2023-02-28T11:19:57;15.17;;;9.10;;
7669;SDS011;3877;42.562;27.636;2023-02-28T11:22:29;18.77;;;8.87;;
7669;SDS011;3877;42.562;27.636;2023-02-28T11:25:06;14.67;;;9.00;;
7669;SDS011;3877;42.562;27.636;2023-02-28T11:27:43;16.77;;;8.37;;
7669;SDS011;3877;42.562;27.636;2023-02-28T11:30:28;18.77;;;9.50;;
7669;SDS011;3877;42.562;27.636;2023-02-28T11:33:00;15.23;;;8.60;;
7669;SDS011;3877;42.562;27.636;2023-02-28T11:35:46;13.33;;;7.40;;
7669;SDS011;3877;42.562;27.636;2023-02-28T11:38:16;17.67;;;8.63;;
7669;SDS011;3877;42.562;27.636;2023-02-28T11:40:46;12.27;;;7.93;;
7669;SDS011;3877;42.562;27.636;2023-02-28T11:43:29;14.90;;;7.47;;
7669;SDS011;3877;42.562;27.636;2023-02-28T11:46:07;13.30;;;7.80;;
7669;SDS011;3877;42.562;27.636;2023-02-28T11:48:47;17.00;;;7.67;;
7669;SDS011;3877;42.562;27.636;2023-02-28T11:51:53;14.20;;;8.60;;
7669;SDS011;3877;42.562;27.636;2023-02-28T11:54:35;12.73;;;7.20;;
7669;SDS011;3877;42.562;27.636;2023-02-28T11:57:33;14.17;;;8.03;;
7669;SDS011;3877;42.562;27.636;2023-02-28T12:00:25;12.60;;;8.23;;
7669;SDS011;3877;42.562;27.636;2023-02-28T12:03:14;17.73;;;8.23;;
7669;SDS011;3877;42.562;27.636;2023-02-28T12:05:58;18.43;;;9.20;;
7669;SDS011;3877;42.562;27.636;2023-02-28T12:08:47;12.53;;;8.13;;
7669;SDS011;3877;42.562;27.636;2023-02-28T12:11:27;15.70;;;8.83;;
7669;SDS011;3877;42.562;27.636;2023-02-28T12:14:13;15.83;;;6.93;;
7669;SDS011;3877;42.562;27.636;2023-02-28T12:16:59;14.17;;;6.00;;
7669;SDS011;3877;42.562;27.636;2023-02-28T12:19:41;13.73;;;7.53;;
7669;SDS011;3877;42.562;27.636;2023-02-28T12:22:19;15.80;;;8.27;;
7669;SDS011;3877;42.562;27.636;2023-02-28T12:25:01;15.73;;;7.17;;
7669;SDS011;3877;42.562;27.636;2023-02-28T12:27:46;15.17;;;7.00;;
7669;SDS011;3877;42.562;27.636;2023-02-28T12:30:16;14.87;;;7.23;;
7669;SDS011;3877;42.562;27.636;2023-02-28T12:32:49;11.57;;;5.97;;
7669;SDS011;3877;42.562;27.636;2023-02-28T12:35:22;25.30;;;8.03;;
7669;SDS011;3877;42.562;27.636;2023-02-28T12:37:55;11.30;;;6.30;;
7669;SDS011;3877;42.562;27.636;2023-02-28T12:40:28;14.30;;;7.13;;
7669;SDS011;3877;42.562;27.636;2023-02-28T12:43:13;14.63;;;6.33;;
7669;SDS011;3877;42.562;27.636;2023-02-28T12:45:49;11.33;;;6.57;;
7669;SDS011;3877;42.562;27.636;2023-02-28T12:48:20;17.07;;;7.37;;
7669;SDS011;3877;42.562;27.636;2023-02-28T12:50:54;19.57;;;8.47;;
7669;SDS011;3877;42.562;27.636;2023-02-28T12:53:38;17.17;;;8.10;;
7669;SDS011;3877;42.562;27.636;2023-02-28T12:56:21;20.53;;;8.00;;
7669;SDS011;3877;42.562;27.636;2023-02-28T12:58:57;11.27;;;7.17;;
7669;SDS011;3877;42.562;27.636;2023-02-28T13:01:33;15.10;;;6.60;;
7669;SDS011;3877;42.562;27.636;2023-02-28T13:04:23;17.63;;;7.73;;
7669;SDS011;3877;42.562;27.636;2023-02-28T13:07:10;15.57;;;7.67;;
7669;SDS011;3877;42.562;27.636;2023-02-28T13:09:59;15.23;;;7.87;;
7669;SDS011;3877;42.562;27.636;2023-02-28T13:12:30;20.30;;;7.37;;
7669;SDS011;3877;42.562;27.636;2023-02-28T13:15:07;13.30;;;6.87;;
7669;SDS011;3877;42.562;27.636;2023-02-28T13:17:48;13.73;;;7.83;;
7669;SDS011;3877;42.562;27.636;2023-02-28T13:20:24;17.77;;;8.30;;
7669;SDS011;3877;42.562;27.636;2023-02-28T13:22:56;11.23;;;6.23;;
7669;SDS011;3877;42.562;27.636;2023-02-28T13:31:34;16.50;;;7.80;;
7669;SDS011;3877;42.562;27.636;2023-02-28T13:34:36;14.13;;;7.87;;
7669;SDS011;3877;42.562;27.636;2023-02-28T13:43:16;11.27;;;7.50;;
7669;SDS011;3877;42.562;27.636;2023-02-28T13:51:52;16.60;;;9.13;;
7669;SDS011;3877;42.562;27.636;2023-02-28T13:54:28;12.53;;;8.03;;
7669;SDS011;3877;42.562;27.636;2023-02-28T13:57:10;11.93;;;6.27;;
7669;SDS011;3877;42.562;27.636;2023-02-28T13:59:59;10.67;;;7.27;;
7669;SDS011;3877;42.562;27.636;2023-02-28T14:03:20;13.17;;;7.13;;
7669;SDS011;3877;42.562;27.636;2023-02-28T14:06:31;12.20;;;7.40;;
7669;SDS011;3877;42.562;27.636;2023-02-28T14:09:00;13.73;;;7.33;;
7669;SDS011;3877;42.562;27.636;2023-02-28T14:11:36;16.53;;;8.30;;
7669;SDS011;3877;42.562;27.636;2023-02-28T14:14:06;15.30;;;8.60;;
7669;SDS011;3877;42.562;27.636;2023-02-28T14:16:41;16.83;;;7.67;;
7669;SDS011;3877;42.562;27.636;2023-02-28T14:19:12;14.23;;;8.23;;
7669;SDS011;3877;42.562;27.636;2023-02-28T14:21:50;17.50;;;7.63;;
7669;SDS011;3877;42.562;27.636;2023-02-28T14:24:52;22.00;;;8.40;;
7669;SDS011;3877;42.562;27.636;2023-02-28T14:27:37;15.43;;;7.17;;
7669;SDS011;3877;42.562;27.636;2023-02-28T14:30:19;16.00;;;7.97;;
7669;SDS011;3877;42.562;27.636;2023-02-28T14:38:49;17.13;;;9.00;;
7669;SDS011;3877;42.562;27.636;2023-02-28T14:41:21;13.50;;;8.20;;
7669;SDS011;3877;42.562;27.636;2023-02-28T14:43:54;13.87;;;7.00;;
7669;SDS011;3877;42.562;27.636;2023-02-28T14:46:23;14.60;;;8.40;;
7669;SDS011;3877;42.562;27.636;2023-02-28T14:48:57;16.80;;;8.53;;
7669;SDS011;3877;42.562;27.636;2023-02-28T14:51:24;12.70;;;7.70;;
7669;SDS011;3877;42.562;27.636;2023-02-28T14:53:56;13.80;;;8.40;;
7669;SDS011;3877;42.562;27.636;2023-02-28T14:56:26;17.37;;;7.87;;
7669;SDS011;3877;42.562;27.636;2023-02-28T14:58:56;17.07;;;7.33;;
7669;SDS011;3877;42.562;27.636;2023-02-28T15:01:24;16.30;;;7.90;;
7669;SDS011;3877;42.562;27.636;2023-02-28T15:04:00;9.30;;;6.33;;
7669;SDS011;3877;42.562;27.636;2023-02-28T15:06:29;16.80;;;7.57;;
7669;SDS011;3877;42.562;27.636;2023-02-28T15:09:08;16.80;;;8.23;;
7669;SDS011;3877;42.562;27.636;2023-02-28T15:11:37;14.73;;;8.00;;
7669;SDS011;3877;42.562;27.636;2023-02-28T15:14:06;14.93;;;7.30;;
7669;SDS011;3877;42.562;27.636;2023-02-28T15:16:34;14.33;;;7.30;;
7669;SDS011;3877;42.562;27.636;2023-02-28T15:19:05;11.80;;;6.97;;
7669;SDS011;3877;42.562;27.636;2023-02-28T15:21:35;12.80;;;7.90;;
7669;SDS011;3877;42.562;27.636;2023-02-28T15:24:06;13.83;;;8.07;;
7669;SDS011;3877;42.562;27.636;2023-02-28T15:26:39;13.33;;;7.10;;
7669;SDS011;3877;42.562;27.636;2023-02-28T15:29:11;14.50;;;8.23;;
7669;SDS011;3877;42.562;27.636;2023-02-28T15:31:43;14.10;;;7.80;;
7669;SDS011;3877;42.562;27.636;2023-02-28T15:34:14;16.10;;;8.20;;
7669;SDS011;3877;42.562;27.636;2023-02-28T15:36:46;21.40;;;9.10;;
7669;SDS011;3877;42.562;27.636;2023-02-28T15:39:20;19.70;;;9.50;;
7669;SDS011;3877;42.562;27.636;2023-02-28T15:41:49;14.43;;;7.70;;
7669;SDS011;3877;42.562;27.636;2023-02-28T15:44:17;18.60;;;9.77;;
7669;SDS011;3877;42.562;27.636;2023-02-28T15:46:55;16.30;;;8.50;;
7669;SDS011;3877;42.562;27.636;2023-02-28T15:49:26;15.93;;;9.00;;
7669;SDS011;3877;42.562;27.636;2023-02-28T15:51:57;11.30;;;7.67;;